createdAt,value
2018-04-22T00:01:31.740Z,19.43
2018-04-22T00:03:59.344Z,16.33
2018-04-22T00:06:26.917Z,14.83
2018-04-22T00:08:55.349Z,15.00
2018-04-22T00:11:22.906Z,19.53
2018-04-22T00:13:50.458Z,12.97
2018-04-22T00:16:17.984Z,15.37
2018-04-22T00:18:45.883Z,16.50
2018-04-22T00:21:13.465Z,16.37
2018-04-22T00:23:42.533Z,13.00
2018-04-22T00:26:10.087Z,12.73
2018-04-22T00:28:37.781Z,10.90
2018-04-22T00:31:05.324Z,9.67
2018-04-22T00:33:32.880Z,18.30
2018-04-22T00:36:00.511Z,14.37
2018-04-22T00:38:28.082Z,12.80
2018-04-22T00:40:55.682Z,8.03
2018-04-22T00:43:23.217Z,15.03
2018-04-22T00:45:51.064Z,12.40
2018-04-22T00:48:18.636Z,14.07
2018-04-22T00:50:46.182Z,10.27
2018-04-22T00:53:14.014Z,12.47
2018-04-22T00:55:43.116Z,10.60
2018-04-22T00:58:10.680Z,15.80
2018-04-22T01:00:38.292Z,21.17
2018-04-22T01:03:05.949Z,22.63
2018-04-22T01:05:33.522Z,9.30
2018-04-22T01:08:01.068Z,9.73
2018-04-22T01:10:28.631Z,11.77
2018-04-22T01:12:56.371Z,9.33
2018-04-22T01:15:23.942Z,13.67
2018-04-22T01:17:52.102Z,17.60
2018-04-22T01:20:19.614Z,10.40
2018-04-22T01:22:47.411Z,12.07
2018-04-22T01:25:15.170Z,11.70
2018-04-22T01:27:43.461Z,14.03
2018-04-22T01:30:12.421Z,11.93
2018-04-22T01:32:40.793Z,12.13
2018-04-22T01:35:08.329Z,9.00
2018-04-22T01:37:35.919Z,8.30
2018-04-22T01:40:03.507Z,7.20
2018-04-22T01:42:31.405Z,14.23
2018-04-22T01:44:58.956Z,14.03
2018-04-22T01:47:26.487Z,15.60
2018-04-22T01:49:55.784Z,7.90
2018-04-22T01:52:24.395Z,8.33
2018-04-22T01:54:52.547Z,10.97
2018-04-22T01:57:20.135Z,9.67
2018-04-22T01:59:47.668Z,9.40
2018-04-22T02:02:15.222Z,7.57
2018-04-22T02:04:42.756Z,6.93
2018-04-22T02:07:10.968Z,9.30
2018-04-22T02:09:38.746Z,9.07
2018-04-22T02:12:06.291Z,9.07
2018-04-22T02:14:33.858Z,7.57
2018-04-22T02:17:01.883Z,6.43
2018-04-22T02:19:29.778Z,9.87
2018-04-22T02:21:57.345Z,6.17
2018-04-22T02:24:25.640Z,9.17
2018-04-22T02:26:53.223Z,8.17
2018-04-22T02:29:20.828Z,10.30
2018-04-22T02:31:48.390Z,6.87
2018-04-22T02:34:16.714Z,6.00
2018-04-22T02:36:44.451Z,9.87
2018-04-22T02:39:12.153Z,6.33
2018-04-22T02:41:39.723Z,11.70
2018-04-22T02:44:07.359Z,6.87
2018-04-22T02:46:35.034Z,11.33
2018-04-22T02:49:02.593Z,12.83
2018-04-22T02:51:30.146Z,7.33
2018-04-22T02:53:57.955Z,6.00
2018-04-22T02:56:25.504Z,5.30
2018-04-22T02:58:53.031Z,9.63
2018-04-22T03:01:21.223Z,11.40
2018-04-22T03:03:49.693Z,12.17
2018-04-22T03:06:17.260Z,11.30
2018-04-22T03:08:44.816Z,8.33
2018-04-22T03:11:12.380Z,7.80
2018-04-22T03:13:39.954Z,10.87
2018-04-22T03:16:07.605Z,15.00
2018-04-22T03:18:35.228Z,13.90
2018-04-22T03:21:02.903Z,8.83
2018-04-22T03:23:30.429Z,10.50
2018-04-22T03:25:58.757Z,17.43
2018-04-22T03:28:26.285Z,8.70
2018-04-22T03:30:53.955Z,7.27
2018-04-22T03:33:21.993Z,10.67
2018-04-22T03:35:49.579Z,14.47
2018-04-22T03:38:17.393Z,13.13
2018-04-22T03:40:44.923Z,9.20
2018-04-22T03:43:12.571Z,16.60
2018-04-22T03:45:40.128Z,9.97
2018-04-22T03:48:07.990Z,8.50
2018-04-22T03:50:35.499Z,9.27
2018-04-22T03:53:03.049Z,10.17
2018-04-22T03:55:32.002Z,8.63
2018-04-22T03:57:59.961Z,10.30
2018-04-22T04:00:28.278Z,11.73
2018-04-22T04:02:55.795Z,8.27
2018-04-22T04:05:24.077Z,11.07
2018-04-22T04:07:53.580Z,11.93
2018-04-22T04:10:21.733Z,9.40
2018-04-22T04:12:49.322Z,14.17
2018-04-22T04:15:17.669Z,13.77
2018-04-22T04:17:45.461Z,11.57
2018-04-22T04:20:25.025Z,13.33
2018-04-22T04:22:52.562Z,14.73
2018-04-22T04:28:32.398Z,12.20
2018-04-22T04:30:59.924Z,11.00
2018-04-22T04:33:28.094Z,11.20
2018-04-22T04:35:55.644Z,11.73
2018-04-22T04:38:23.211Z,14.23
2018-04-22T04:40:50.822Z,12.57
2018-04-22T04:43:18.415Z,13.90
2018-04-22T04:45:45.981Z,11.27
2018-04-22T04:48:13.505Z,14.33
2018-04-22T04:50:41.523Z,11.07
2018-04-22T04:53:09.060Z,14.50
2018-04-22T04:55:36.631Z,11.43
2018-04-22T04:58:04.194Z,17.07
2018-04-22T05:00:32.832Z,17.40
2018-04-22T05:03:00.561Z,12.63
2018-04-22T05:05:28.146Z,12.80
2018-04-22T05:07:56.268Z,13.30
2018-04-22T05:10:25.540Z,15.20
2018-04-22T05:12:53.142Z,15.23
2018-04-22T05:15:20.694Z,19.13
2018-04-22T05:17:48.289Z,15.60
2018-04-22T05:20:15.817Z,17.50
2018-04-22T05:22:43.413Z,19.60
2018-04-22T05:25:11.809Z,15.27
2018-04-22T05:27:40.115Z,13.07
2018-04-22T05:30:07.662Z,16.00
2018-04-22T05:32:35.227Z,15.07
2018-04-22T05:35:03.552Z,15.80
2018-04-22T05:37:32.018Z,16.93
2018-04-22T05:39:59.613Z,15.47
2018-04-22T05:42:27.160Z,15.20
2018-04-22T05:44:54.706Z,16.20
2018-04-22T05:47:23.638Z,19.40
2018-04-22T05:49:51.813Z,16.73
2018-04-22T05:52:19.378Z,18.73
2018-04-22T05:54:46.904Z,19.27
2018-04-22T05:57:15.382Z,15.97
2018-04-22T05:59:42.934Z,14.80
2018-04-22T06:02:10.509Z,13.60
2018-04-22T06:04:38.041Z,18.80
2018-04-22T06:07:05.588Z,14.40
2018-04-22T06:09:33.197Z,15.87
2018-04-22T06:12:00.780Z,15.03
2018-04-22T06:14:28.607Z,20.20
2018-04-22T06:16:56.810Z,16.97
2018-04-22T06:19:24.427Z,17.33
2018-04-22T06:21:52.177Z,20.23
2018-04-22T06:24:20.464Z,17.90
2018-04-22T06:26:48.047Z,20.00
2018-04-22T06:29:15.588Z,17.90
2018-04-22T06:31:43.141Z,17.57
2018-04-22T06:34:10.673Z,17.10
2018-04-22T06:36:38.246Z,19.43
2018-04-22T06:39:06.558Z,19.70
2018-04-22T06:41:34.929Z,19.27
2018-04-22T06:44:02.490Z,18.20
2018-04-22T06:46:30.039Z,21.67
2018-04-22T06:48:58.484Z,25.90
2018-04-22T06:51:26.087Z,18.03
2018-04-22T06:53:53.636Z,21.97
2018-04-22T06:56:21.647Z,19.90
2018-04-22T06:58:49.324Z,25.53
2018-04-22T07:01:17.128Z,26.67
2018-04-22T07:03:44.669Z,20.70
2018-04-22T07:06:12.994Z,17.70
2018-04-22T07:08:40.903Z,19.83
2018-04-22T07:11:08.456Z,17.63
2018-04-22T07:13:36.056Z,17.20
2018-04-22T07:16:03.638Z,20.80
2018-04-22T07:18:31.821Z,19.40
2018-04-22T07:20:59.373Z,20.20
2018-04-22T07:23:26.993Z,19.43
2018-04-22T07:25:55.531Z,21.53
2018-04-22T07:28:23.333Z,17.33
2018-04-22T07:30:50.901Z,16.30
2018-04-22T07:33:18.480Z,22.33
2018-04-22T07:35:46.921Z,17.57
2018-04-22T07:38:14.585Z,21.90
2018-04-22T07:40:42.995Z,20.33
2018-04-22T07:43:11.224Z,19.57
2018-04-22T07:45:39.341Z,18.07
2018-04-22T07:48:07.742Z,15.63
2018-04-22T07:50:35.303Z,25.40
2018-04-22T07:53:02.866Z,19.03
2018-04-22T07:55:30.440Z,18.30
2018-04-22T07:57:58.441Z,17.70
2018-04-22T08:00:26.138Z,19.10
2018-04-22T08:02:54.636Z,18.57
2018-04-22T08:05:22.810Z,17.73
2018-04-22T08:07:51.057Z,29.17
2018-04-22T08:10:19.133Z,18.67
2018-04-22T08:12:46.895Z,17.00
2018-04-22T08:15:15.600Z,18.90
2018-04-22T08:17:43.350Z,17.20
2018-04-22T08:20:11.183Z,19.63
2018-04-22T08:22:38.733Z,15.40
2018-04-22T08:25:06.263Z,18.80
2018-04-22T08:27:34.763Z,20.97
2018-04-22T08:30:02.855Z,17.10
2018-04-22T08:32:31.100Z,21.90
2018-04-22T08:34:59.541Z,24.73
2018-04-22T08:37:27.458Z,17.73
2018-04-22T08:39:55.237Z,21.17
2018-04-22T08:42:22.768Z,18.80
2018-04-22T08:44:50.439Z,18.40
2018-04-22T08:47:18.064Z,21.80
2018-04-22T08:49:45.657Z,18.27
2018-04-22T08:52:13.218Z,19.83
2018-04-22T08:54:41.721Z,23.20
2018-04-22T08:57:09.307Z,19.50
2018-04-22T08:59:36.835Z,17.00
2018-04-22T09:02:05.245Z,19.50
2018-04-22T09:04:32.921Z,17.50
2018-04-22T09:07:00.656Z,20.17
2018-04-22T09:09:28.740Z,22.63
2018-04-22T09:11:56.302Z,22.10
2018-04-22T09:14:24.259Z,16.57
2018-04-22T09:16:53.909Z,16.73
2018-04-22T09:19:21.982Z,17.07
2018-04-22T09:21:49.521Z,18.80
2018-04-22T09:24:18.060Z,38.63
2018-04-22T09:26:45.859Z,22.00
2018-04-22T09:29:13.438Z,21.43
2018-04-22T09:31:42.271Z,16.57
2018-04-22T09:34:09.863Z,37.23
2018-04-22T09:36:39.071Z,17.60
2018-04-22T09:39:06.599Z,16.40
2018-04-22T09:41:34.166Z,19.60
2018-04-22T09:44:02.469Z,18.13
2018-04-22T09:46:30.408Z,15.93
2018-04-22T09:48:58.604Z,18.23
2018-04-22T09:51:26.130Z,18.10
2018-04-22T09:53:53.671Z,18.03
2018-04-22T09:56:22.126Z,16.13
2018-04-22T09:58:49.694Z,19.40
2018-04-22T10:01:20.172Z,17.33
2018-04-22T10:03:47.754Z,16.57
2018-04-22T10:06:15.367Z,11.90
2018-04-22T10:08:42.951Z,16.60
2018-04-22T10:11:10.622Z,17.93
2018-04-22T10:13:38.913Z,20.77
2018-04-22T10:16:07.443Z,21.80
2018-04-22T10:18:36.252Z,13.13
2018-04-22T10:21:03.799Z,14.17
2018-04-22T10:23:32.909Z,16.80
2018-04-22T10:26:00.692Z,21.23
2018-04-22T10:28:29.336Z,16.27
2018-04-22T10:30:57.796Z,14.93
2018-04-22T10:33:25.355Z,20.67
2018-04-22T10:35:53.674Z,15.90
2018-04-22T10:38:22.585Z,21.20
2018-04-22T10:40:51.070Z,14.90
2018-04-22T10:43:18.701Z,18.33
2018-04-22T10:45:46.545Z,13.47
2018-04-22T10:48:14.070Z,11.37
2018-04-22T10:50:42.445Z,16.40
2018-04-22T10:53:10.030Z,17.37
2018-04-22T10:55:37.568Z,14.63
2018-04-22T10:58:05.501Z,15.30
2018-04-22T11:00:33.009Z,13.57
2018-04-22T11:03:00.535Z,16.73
2018-04-22T11:05:28.120Z,16.47
2018-04-22T11:07:56.349Z,17.27
2018-04-22T11:10:23.932Z,20.37
2018-04-22T11:12:51.977Z,29.47
2018-04-22T11:15:20.278Z,16.40
2018-04-22T11:17:47.865Z,14.70
2018-04-22T11:20:15.558Z,15.63
2018-04-22T11:22:43.095Z,13.03
2018-04-22T11:25:10.629Z,11.57
2018-04-22T11:27:38.261Z,13.10
2018-04-22T11:30:06.566Z,18.17
2018-04-22T11:32:34.200Z,15.53
2018-04-22T11:35:02.518Z,14.43
2018-04-22T11:37:30.069Z,12.77
2018-04-22T11:39:57.606Z,12.93
2018-04-22T11:42:25.474Z,16.57
2018-04-22T11:44:53.369Z,21.60
2018-04-22T11:47:20.921Z,15.53
2018-04-22T11:49:48.452Z,22.33
2018-04-22T11:52:16.859Z,15.50
2018-04-22T11:54:44.731Z,13.47
2018-04-22T11:57:12.331Z,18.87
2018-04-22T11:59:39.850Z,14.27
2018-04-22T12:02:07.481Z,13.03
2018-04-22T12:04:35.073Z,15.87
2018-04-22T12:07:02.667Z,12.63
2018-04-22T12:09:30.367Z,14.07
2018-04-22T12:11:59.049Z,13.03
2018-04-22T12:14:26.642Z,11.30
2018-04-22T12:16:54.206Z,11.40
2018-04-22T12:19:23.286Z,12.97
2018-04-22T12:21:51.937Z,12.30
2018-04-22T12:24:19.465Z,14.80
2018-04-22T12:26:47.019Z,14.80
2018-04-22T12:29:14.585Z,25.30
2018-04-22T12:31:43.823Z,11.67
2018-04-22T12:34:12.010Z,15.60
2018-04-22T12:36:39.614Z,9.93
2018-04-22T12:39:07.136Z,20.93
2018-04-22T12:41:34.884Z,11.37
2018-04-22T12:44:03.211Z,11.13
2018-04-22T12:46:30.735Z,10.77
2018-04-22T12:48:59.056Z,14.10
2018-04-22T12:51:26.950Z,11.27
2018-04-22T12:53:54.565Z,16.00
2018-04-22T12:56:23.026Z,9.67
2018-04-22T12:58:50.581Z,13.90
2018-04-22T13:01:19.904Z,14.73
2018-04-22T13:03:47.466Z,17.23
2018-04-22T13:06:15.211Z,21.67
2018-04-22T13:08:43.661Z,10.60
2018-04-22T13:11:12.079Z,12.10
2018-04-22T13:13:40.476Z,11.23
2018-04-22T13:16:08.042Z,8.47
2018-04-22T13:18:35.611Z,11.37
2018-04-22T13:21:03.278Z,8.40
2018-04-22T13:23:31.026Z,11.93
2018-04-22T13:25:58.562Z,10.27
2018-04-22T13:28:26.115Z,9.87
2018-04-22T13:30:53.841Z,9.60
2018-04-22T13:33:22.014Z,10.87
2018-04-22T13:35:49.554Z,12.33
2018-04-22T13:38:17.120Z,11.80
2018-04-22T13:40:44.663Z,11.33
2018-04-22T13:43:13.108Z,11.20
2018-04-22T13:45:40.646Z,13.27
2018-04-22T13:48:08.892Z,8.37
2018-04-22T13:50:41.661Z,10.03
2018-04-22T13:53:09.497Z,10.00
2018-04-22T13:55:37.813Z,9.83
2018-04-22T13:58:05.416Z,12.50
2018-04-22T14:00:32.973Z,9.30
2018-04-22T14:03:01.956Z,10.80
2018-04-22T14:05:29.538Z,11.03
2018-04-22T14:07:57.851Z,13.87
2018-04-22T14:10:25.534Z,13.97
2018-04-22T14:12:54.078Z,9.30
2018-04-22T14:15:21.699Z,13.90
2018-04-22T14:17:49.343Z,10.47
2018-04-22T14:20:16.943Z,13.50
2018-04-22T14:22:44.561Z,15.23
2018-04-22T14:25:12.949Z,9.50
2018-04-22T14:27:42.936Z,9.90
2018-04-22T14:30:10.518Z,10.67
2018-04-22T14:32:38.100Z,14.83
2018-04-22T14:35:07.252Z,14.73
2018-04-22T14:37:34.867Z,12.13
2018-04-22T14:40:02.460Z,8.93
2018-04-22T14:42:32.045Z,8.43
2018-04-22T14:45:12.138Z,10.93
2018-04-22T14:47:40.470Z,9.30
2018-04-22T14:50:08.193Z,9.00
2018-04-22T14:52:35.724Z,8.20
2018-04-22T14:55:03.409Z,9.83
2018-04-22T14:57:31.948Z,10.43
2018-04-22T15:00:00.412Z,9.23
2018-04-22T15:02:27.957Z,8.43
2018-04-22T15:04:55.533Z,9.30
2018-04-22T15:07:23.420Z,12.03
2018-04-22T15:09:51.831Z,14.53
2018-04-22T15:12:19.678Z,16.43
2018-04-22T15:14:48.027Z,13.13
2018-04-22T15:17:16.620Z,8.00
2018-04-22T15:19:44.154Z,8.53
2018-04-22T15:22:12.423Z,9.30
2018-04-22T15:24:39.976Z,9.77
2018-04-22T15:27:07.569Z,9.07
2018-04-22T15:29:36.618Z,17.67
2018-04-22T15:45:01.422Z,8.20
2018-04-22T15:47:28.949Z,8.30
2018-04-22T15:49:56.921Z,13.87
2018-04-22T15:52:24.472Z,8.90
2018-04-22T15:54:53.953Z,10.73
2018-04-22T15:57:21.915Z,8.83
2018-04-22T15:59:49.487Z,11.77
2018-04-22T16:02:17.007Z,22.80
2018-04-22T16:04:45.553Z,15.40
2018-04-22T16:07:13.082Z,12.30
2018-04-22T16:09:41.755Z,16.97
2018-04-22T16:12:09.624Z,13.20
2018-04-22T16:14:37.375Z,8.67
2018-04-22T16:17:04.917Z,11.20
2018-04-22T16:19:32.458Z,13.47
2018-04-22T16:22:00.020Z,9.97
2018-04-22T16:24:28.646Z,18.23
2018-04-22T16:26:56.198Z,14.27
2018-04-22T16:29:23.719Z,13.87
2018-04-22T16:31:52.813Z,9.43
2018-04-22T16:34:21.042Z,14.87
2018-04-22T16:36:48.912Z,9.20
2018-04-22T16:39:17.192Z,13.70
2018-04-22T16:41:46.232Z,10.73
2018-04-22T16:44:16.148Z,10.40
2018-04-22T16:46:44.278Z,9.90
2018-04-22T16:49:13.340Z,15.33
2018-04-22T16:51:40.869Z,9.83
2018-04-22T16:54:08.663Z,15.87
2018-04-22T16:56:36.400Z,9.37
2018-04-22T16:59:03.969Z,14.80
2018-04-22T17:01:31.961Z,14.33
2018-04-22T17:03:59.501Z,13.33
2018-04-22T17:06:28.530Z,14.00
2018-04-22T17:08:56.082Z,15.73
2018-04-22T17:11:23.629Z,10.13
2018-04-22T17:13:51.741Z,16.27
2018-04-22T17:16:20.097Z,13.40
2018-04-22T17:18:47.629Z,16.70
2018-04-22T17:21:15.159Z,14.77
2018-04-22T17:23:44.500Z,10.97
2018-04-22T17:26:12.793Z,9.83
2018-04-22T17:28:40.683Z,10.17
2018-04-22T17:31:08.413Z,12.37
2018-04-22T17:33:36.095Z,15.53
2018-04-22T17:36:04.117Z,13.93
2018-04-22T17:38:31.644Z,13.77
2018-04-22T17:40:59.828Z,15.67
2018-04-22T17:43:28.158Z,18.80
2018-04-22T17:45:55.857Z,13.80
2018-04-22T17:48:23.412Z,18.13
2018-04-22T17:50:52.562Z,23.10
2018-04-22T17:53:20.153Z,26.00
2018-04-22T17:55:47.954Z,15.60
2018-04-22T17:58:16.256Z,13.27
2018-04-22T18:00:43.810Z,11.10
2018-04-22T18:03:11.959Z,17.57
2018-04-22T18:05:40.132Z,18.30
2018-04-22T18:08:08.483Z,17.60
2018-04-22T18:10:36.009Z,19.30
2018-04-22T18:13:04.154Z,14.30
2018-04-22T18:15:32.666Z,16.00
2018-04-22T18:18:00.482Z,15.87
2018-04-22T18:20:28.335Z,16.23
2018-04-22T18:22:55.886Z,20.90
2018-04-22T18:25:23.648Z,13.53
2018-04-22T18:27:51.971Z,10.90
2018-04-22T18:30:19.524Z,23.50
2018-04-22T18:32:47.845Z,25.10
2018-04-22T18:35:15.481Z,14.63
2018-04-22T18:37:43.064Z,16.13
2018-04-22T18:40:10.674Z,21.30
2018-04-22T18:42:39.027Z,20.77
2018-04-22T18:45:06.689Z,25.50
2018-04-22T18:47:34.543Z,16.47
2018-04-22T18:50:03.568Z,14.40
2018-04-22T18:52:31.585Z,20.17
2018-04-22T18:55:00.087Z,16.10
2018-04-22T18:57:27.870Z,22.60
2018-04-22T18:59:55.415Z,17.53
2018-04-22T19:02:23.739Z,21.43
2018-04-22T19:04:51.727Z,18.30
2018-04-22T19:07:20.162Z,22.20
2018-04-22T19:09:48.353Z,27.40
2018-04-22T19:12:15.918Z,28.13
2018-04-22T19:14:43.551Z,20.97
2018-04-22T19:17:11.146Z,21.47
2018-04-22T19:19:38.750Z,17.93
2018-04-22T19:22:06.301Z,20.10
2018-04-22T19:24:33.875Z,16.20
2018-04-22T19:27:01.440Z,18.30
2018-04-22T19:29:29.546Z,17.10
2018-04-22T19:31:59.857Z,24.93
2018-04-22T19:34:29.436Z,17.10
2018-04-22T19:36:58.650Z,13.13
2018-04-22T19:39:26.869Z,15.43
2018-04-22T19:41:55.523Z,27.63
2018-04-22T19:44:24.006Z,21.43
2018-04-22T19:46:53.319Z,20.47
2018-04-22T19:49:23.002Z,23.73
2018-04-22T19:51:50.986Z,18.83
2018-04-22T19:54:21.634Z,17.80
2018-04-22T19:56:49.770Z,28.47
2018-04-22T19:59:17.318Z,20.37
2018-04-22T20:01:45.214Z,33.07
2018-04-22T20:04:13.595Z,37.47
2018-04-22T20:06:41.724Z,23.10
2018-04-22T20:09:10.013Z,24.63
2018-04-22T20:11:38.368Z,17.00
2018-04-22T20:14:06.750Z,19.03
2018-04-22T20:16:36.205Z,22.10
2018-04-22T20:19:05.735Z,19.57
2018-04-22T20:21:34.815Z,17.17
2018-04-22T20:24:03.704Z,19.10
2018-04-22T20:26:39.994Z,20.07
2018-04-22T20:29:08.672Z,19.23
2018-04-22T20:31:37.134Z,23.00
2018-04-22T20:34:05.177Z,15.03
2018-04-22T20:36:32.954Z,19.63
2018-04-22T20:39:01.052Z,28.33
2018-04-22T20:41:30.967Z,18.70
2018-04-22T20:43:58.786Z,23.90
2018-04-22T20:46:27.882Z,23.73
2018-04-22T20:48:56.767Z,23.80
2018-04-22T20:51:24.549Z,15.97
2018-04-22T20:53:53.509Z,17.80
2018-04-22T20:56:21.082Z,14.43
2018-04-22T20:58:49.547Z,23.40
2018-04-22T21:01:17.089Z,20.37
2018-04-22T21:03:44.763Z,17.40
2018-04-22T21:06:12.333Z,20.57
2018-04-22T21:08:40.808Z,18.03
2018-04-22T21:11:08.345Z,16.20
2018-04-22T21:13:36.844Z,14.20
2018-04-22T21:16:05.031Z,13.80
2018-04-22T21:18:33.164Z,13.40
2018-04-22T21:21:01.355Z,16.90
2018-04-22T21:23:31.090Z,16.00
2018-04-22T21:25:58.629Z,18.73
2018-04-22T21:28:26.227Z,14.37
2018-04-22T21:30:54.907Z,18.53
2018-04-22T21:33:38.089Z,16.37
2018-04-22T21:38:44.046Z,17.80
2018-04-22T21:41:13.764Z,21.67
2018-04-22T21:43:41.761Z,17.97
2018-04-22T21:46:09.733Z,19.83
2018-04-22T21:48:38.025Z,22.20
2018-04-22T21:51:08.281Z,19.13
2018-04-22T21:53:36.061Z,19.20
2018-04-22T21:56:03.601Z,15.83
2018-04-22T21:58:31.755Z,17.57
2018-04-22T22:01:01.489Z,16.03
2018-04-22T22:03:29.924Z,21.80
2018-04-22T22:05:57.727Z,18.23
2018-04-22T22:08:26.046Z,17.37
2018-04-22T22:10:53.604Z,19.80
2018-04-22T22:13:21.655Z,17.23
2018-04-22T22:15:49.322Z,15.93
2018-04-22T22:18:16.918Z,27.83
2018-04-22T22:20:44.481Z,18.23
2018-04-22T22:23:12.436Z,20.33
2018-04-22T22:25:40.450Z,15.80
2018-04-22T22:28:09.609Z,15.03
2018-04-22T22:30:37.354Z,16.93
2018-04-22T22:33:05.181Z,21.13
2018-04-22T22:35:34.506Z,17.87
2018-04-22T22:38:02.068Z,21.80
2018-04-22T22:40:29.710Z,21.40
2018-04-22T22:42:57.919Z,24.70
2018-04-22T22:45:26.594Z,19.50
2018-04-22T22:47:54.173Z,19.50
2018-04-22T22:50:23.072Z,21.60
2018-04-22T22:52:51.045Z,21.47
2018-04-22T22:55:19.616Z,22.00
2018-04-22T22:57:47.820Z,21.27
2018-04-22T23:00:15.412Z,25.60
2018-04-22T23:02:42.962Z,20.20
2018-04-22T23:05:10.780Z,21.70
2018-04-22T23:07:38.647Z,22.53
2018-04-22T23:10:06.161Z,22.17
2018-04-22T23:12:34.501Z,20.30
2018-04-22T23:15:02.342Z,17.23
2018-04-22T23:17:29.904Z,19.57
2018-04-22T23:19:57.463Z,17.70
2018-04-22T23:22:25.232Z,24.00
2018-04-22T23:24:53.554Z,20.10
2018-04-22T23:27:22.614Z,19.40
2018-04-22T23:29:50.784Z,17.93
2018-04-22T23:32:18.354Z,19.60
2018-04-22T23:34:45.963Z,18.37
2018-04-22T23:37:13.522Z,19.90
2018-04-22T23:39:42.561Z,18.83
2018-04-22T23:42:10.115Z,15.87
2018-04-22T23:57:33.489Z,17.40
